HKTW weather

Tawi airfield
Tawi, Western Province, Kenya

Public forecast

Using degrees Celsius for public forecast. Weather courtesy of forecast.io.

Closest aviation weather report (METAR) to Tawi airfield

Closest report is Makindu Airport, 35.8 nm (66.2 km) NE. Retrieved UTC (0 seconds ago):

Closest aviation forecast (TAF) to Tawi airfield

Closest forecast is Kilimanjaro International Airport, 47.0 nm (87.1 km) SSW. Retrieved 2019/10/18 06:00 UTC (1 hour ago):

TAF HTKJ 180500Z 1806/1906 09004KT 9999 -RA SCT008 BKN022 TEMPO 1806/1808 5000 BECMG 1809/1812 9999 FEW026CB BKN027 BECMG 1812/1814 RA BECMG 1816/1818 NSW BECMG 1902/1904 5000 SCT008 BKN015